Detalii statie COMAGRA BEREGSAU [00001994]

Toti senzorii

Date Temperatura solului [C]Precipitatii [mm]Voltaj baterie [mV]Leaf Wetness [Min]HC Air temperature [C]HC Relative humidity [%]Punctul de roua [C]
medieminmaxsumaultimatimpmedieminmaxmediemediemin
2019-04-19 19:00:00 14.2 14.1 14.3 0 7176 19.56 18.18 20.87 28.32 0.4 -1.1
2019-04-19 20:00:00 13.9 13.7 14.2 0 6826 15.64 13 17.84 33.17 -0.6 -1.2
2019-04-19 21:00:00 13.5 13.3 13.9 0 6816 11.38 9.87 12.7 44.47 -0.3 -0.7
2019-04-19 22:00:00 13 12.8 13.3 0 6786 8.85 7.76 9.65 51.52 -0.6 -0.9
2019-04-19 23:00:00 12.5 12.3 12.7 0 6776 7.6 7.07 7.99 56.8 -0.4 -1
2019-04-20 00:00:00 12 11.7 12.3 0 6766 6.72 6.06 7.17 59.2 -0.7 -1
2019-04-20 01:00:00 11.5 11.3 11.7 0 6756 6.36 5.91 6.83 63.63 -0.1 -0.6
2019-04-20 02:00:00 11.1 11 11.3 0 6748 5.5 5.27 5.99 70.88 0.5 0
2019-04-20 03:00:00 10.7 10.6 10.9 0 6748 4.73 4.2 5.24 76.3 0.7 0.5
2019-04-20 04:00:00 10.3 10.1 10.5 0 6738 3.85 3.32 4.25 82.72 1 0.8
2019-04-20 05:00:00 9.9 9.7 10.2 0 6718 3.38 2.8 3.9 83.37 0.7 0.1
2019-04-20 06:00:00 9.6 9.4 9.8 0 6728 2.8 2.17 3.13 87.35 0.8 -0.1
2019-04-20 07:00:00 9.3 9.2 9.5 0 6776 3.28 2.63 4.91 94.98 2.4 1.1
2019-04-20 08:00:00 9 8.9 9.1 0 6834 7.61 5.44 10.31 81.94 4.4 3.1
2019-04-20 09:00:00 8.9 8.7 9.1 0 6904 11.95 10.59 13.35 57 3.5 3.2
2019-04-20 10:00:00 8.9 8.8 9.1 0 6972 15.12 13.5 16.42 45.91 3.2 1.7
2019-04-20 11:00:00 9 8.9 9.3 0 7196 17.34 16.28 18.21 35.16 1.5 1
2019-04-20 12:00:00 9.3 9.1 9.5 0 7196 18.22 17.3 19.07 28.58 -0.4 -1.2
2019-04-20 13:00:00 10.2 9.6 10.9 0 7196 18.82 17.94 19.47 27.36 -0.5 -1.4
2019-04-20 14:00:00 11.8 11.1 12.5 0 7196 19.32 18.7 20.1 27.26 -0.2 -1
2019-04-20 15:00:00 13.2 12.6 13.8 0 7196 20.23 19.34 20.7 24.52 -0.9 -1.6
2019-04-20 16:00:00 14.2 13.9 14.8 0 7196 20.27 19.75 20.79 24.77 -0.7 -1.6
2019-04-20 17:00:00 15 14.8 15.3 0 7196 20.3 19.82 20.83 24.53 -0.8 -1.6
2019-04-20 18:00:00 15.2 15.1 15.5 0 7196 19.91 19.44 20.4 25.06 -0.9 -1.6
2019-04-20 19:00:00 15.1 15 15.3 0 7158 18.58 17.37 19.47 28.68 -0.2 -0.6
2019-04-20 20:00:00 14.8 14.6 15 0 6834 14.58 12.38 16.97 40.14 0.9 0.3
2019-04-20 21:00:00 14.3 14.1 14.6 0 6816 11.68 11.23 12.43 46.57 0.4 -0.2
2019-04-20 22:00:00 13.8 13.6 14.1 0 6796 10.57 9.46 12.28 45.97 -0.7 -2.2
2019-04-20 23:00:00 13.2 13 13.6 0 6776 10.56 8.89 11.91 47.02 -0.4 -1.2
2019-04-21 00:00:00 12.7 12.5 12.9 0 6766 8.13 7.24 8.77 53.85 -0.7 -0.9
2019-04-21 01:00:00 12.3 12 12.6 0 6756 7.59 6.61 8.2 55.52 -0.7 -1
2019-04-21 02:00:00 11.8 11.6 12.1 0 6748 7.03 5.1 8.09 57.23 -0.9 -1.2
2019-04-21 03:00:00 11.4 11.3 11.7 0 6748 4.5 3.92 5.19 71.23 -0.2 -0.9
2019-04-21 04:00:00 11.1 11 11.3 0 6738 3.52 3.13 3.9 80.82 0.4 -0.2
2019-04-21 05:00:00 10.7 10.6 10.9 0 6728 2.84 2.31 3.58 95.95 2.1 1.8
2019-04-21 06:00:00 10.3 10.2 10.5 0 6728 2.76 2.32 3.25 100 2.7 2.3
2019-04-21 07:00:00 10 9.9 10.2 0 6786 3.91 2.32 6.17 99.91 3.8 2.3
2019-04-21 08:00:00 9.8 9.7 9.9 0 6894 7.96 6.43 9.53 86.7 5.7 5.5
2019-04-21 09:00:00 9.6 9.6 9.8 0 6972 11.05 9.93 12.23 66.97 4.9 4.4
2019-04-21 10:00:00 9.7 9.4 9.9 0 7050 13.6 12.29 14.92 58.28 5.4 4.4
2019-04-21 11:00:00 9.8 9.7 9.9 0 7196 17.08 15.23 18.71 47.19 5.4 4.7
2019-04-21 12:00:00 10.1 10 10.4 0 7196 20.8 19.6 21.82 32.45 3.2 1.4
2019-04-21 13:00:00 10.9 10.5 11.5 0 7196 22.26 21.24 23.35 26.02 1.5 0.6
2019-04-21 14:00:00 12.2 11.7 12.7 0 7080 21.9 21.44 22.93 26.34 1.4 0.6
2019-04-21 15:00:00 12.9 12.7 13.2 0 7176 21.88 21.1 23.37 26.08 1.2 0.5
2019-04-21 16:00:00 13.3 13.1 13.6 0 7060 21.69 21.32 22.44 25.99 1.1 0.4
2019-04-21 17:00:00 13.6 13.4 13.7 0 7176 22.17 21.26 23.2 25.43 1 0.4
2019-04-21 18:00:00 13.8 13.7 14 0 7196 21.46 21.1 21.72 26.72 1.3 1